Grosse Pointe Woods, Michigan
Current Conditions -  °F | °C
As of 3:53 PM on Friday 24 Oct 2014 (Local Time) from KDET Reporting Station
Few Clouds Few Clouds  
Wind Chill: 63°   Ceiling: Unl
Heat Index: 63°   Visibility: 10mi
Dew Point: 43°   Wind: 12mph
Humidity: 48%   Direction: 240°WSW
Pressure: 29.98"   Gusts: NA
Location:  42.4243°N, 82.8975°W
Report Text: KDET 241953Z 24010KT 10SM FEW037 17/06 A2998 RMK AO2 SLP152 T01720061 $
Loading
Personal Weather Stations






























Interactive Weather Map
Tropical Storm Tracking
New forecast layout! Learn more

10-Day Weather Forecast

Advertisements
Track Severe Weather on mobile